Terminal Aerodrome Forecast
Issued by NWS

Home | Current Version | Previous Version | Text Only | Print | Product List | Glossary On
Versions: 1 2 3 4 5 6 7 8 9 10 11 12 13 14 15
000
FTUS42 KGSP 021734
TAFAND
TAF
KAND 021734Z 0218/0318 09005KT P6SM FEW070
     FM030200 13004KT P6SM FEW150
     FM031000 00000KT 5SM BR SCT150
     FM031200 00000KT P6SM SCT150
     FM031600 20005KT P6SM SCT045=

USA.gov is the U.S. government's official web portal to all federal, state and local government web resources and services.